createdAt,value
2019-04-03T00:00:39.059Z,57.00
2019-04-03T00:03:07.373Z,57.90
2019-04-03T00:05:35.981Z,57.20
2019-04-03T00:08:05.970Z,58.00
2019-04-03T00:10:33.949Z,58.10
2019-04-03T00:13:02.316Z,57.60
2019-04-03T00:15:30.566Z,58.10
2019-04-03T00:17:58.981Z,58.30
2019-04-03T00:20:27.419Z,58.70
2019-04-03T00:22:55.871Z,58.80
2019-04-03T00:25:24.400Z,59.20
2019-04-03T00:27:53.034Z,59.80
2019-04-03T00:30:22.459Z,61.20
2019-04-03T00:32:53.184Z,60.10
2019-04-03T00:35:23.111Z,58.70
2019-04-03T00:37:52.878Z,58.30
2019-04-03T00:40:20.477Z,56.60
2019-04-03T00:42:49.033Z,56.30
2019-04-03T00:45:17.379Z,56.30
2019-04-03T00:47:45.727Z,55.80
2019-04-03T00:50:14.054Z,55.40
2019-04-03T00:52:42.311Z,55.30
2019-04-03T00:55:11.084Z,54.70
2019-04-03T00:57:39.356Z,55.30
2019-04-03T01:00:18.638Z,56.00
2019-04-03T01:02:47.191Z,55.30
2019-04-03T01:05:15.498Z,55.70
2019-04-03T01:07:45.135Z,55.70
2019-04-03T01:10:13.833Z,56.20
2019-04-03T01:12:42.302Z,56.00
2019-04-03T01:15:10.578Z,56.30
2019-04-03T01:17:38.839Z,54.70
2019-04-03T01:20:07.244Z,55.00
2019-04-03T01:22:37.334Z,54.30
2019-04-03T01:25:08.265Z,53.70
2019-04-03T01:27:36.868Z,53.30
2019-04-03T01:30:06.671Z,53.50
2019-04-03T01:32:35.411Z,52.90
2019-04-03T01:35:04.708Z,53.50
2019-04-03T01:37:33.346Z,52.60
2019-04-03T01:40:02.047Z,52.20
2019-04-03T01:42:32.066Z,52.30
2019-04-03T01:45:00.552Z,52.70
2019-04-03T01:47:29.241Z,52.10
2019-04-03T01:49:58.769Z,52.40
2019-04-03T01:52:27.104Z,51.40
2019-04-03T01:54:56.784Z,51.00
2019-04-03T01:57:25.207Z,50.90
2019-04-03T01:59:53.813Z,51.30
2019-04-03T02:02:22.277Z,50.80
2019-04-03T02:04:50.554Z,50.10
2019-04-03T02:07:18.818Z,49.80
2019-04-03T02:09:47.367Z,49.90
2019-04-03T02:12:15.668Z,50.20
2019-04-03T02:14:43.970Z,50.20
2019-04-03T02:17:12.464Z,50.50
2019-04-03T02:19:42.290Z,51.30
2019-04-03T02:22:10.607Z,51.50
2019-04-03T02:24:42.023Z,51.80
2019-04-03T02:27:10.295Z,52.70
2019-04-03T02:29:39.860Z,52.90
2019-04-03T02:32:08.342Z,53.50
2019-04-03T02:34:40.149Z,53.90
2019-04-03T02:37:08.742Z,54.50
2019-04-03T02:39:38.004Z,54.10
2019-04-03T02:42:08.623Z,54.20
2019-04-03T02:44:37.210Z,55.10
2019-04-03T02:47:05.476Z,54.30
2019-04-03T02:49:34.173Z,54.50
2019-04-03T02:52:02.616Z,54.70
2019-04-03T02:54:34.620Z,55.30
2019-04-03T02:57:01.380Z,54.80
2019-04-03T02:59:30.067Z,55.20
2019-04-03T03:01:58.943Z,54.90
2019-04-03T03:04:27.712Z,54.80
2019-04-03T03:06:56.015Z,55.30
2019-04-03T03:09:24.471Z,55.40
2019-04-03T03:11:55.243Z,55.20
2019-04-03T03:14:22.879Z,55.20
2019-04-03T03:16:51.369Z,55.30
2019-04-03T03:19:19.864Z,55.30
2019-04-03T03:21:48.539Z,54.80
2019-04-03T03:24:17.156Z,53.90
2019-04-03T03:26:45.573Z,53.50
2019-04-03T03:29:17.985Z,53.30
2019-04-03T03:32:05.319Z,53.00
2019-04-03T03:34:13.702Z,53.00
2019-04-03T03:36:43.519Z,52.70
2019-04-03T03:39:11.879Z,52.40
2019-04-03T03:41:41.042Z,52.40
2019-04-03T03:44:10.540Z,52.70
2019-04-03T03:46:39.572Z,52.10
2019-04-03T03:49:08.310Z,52.30
2019-04-03T03:51:37.005Z,52.30
2019-04-03T03:54:05.642Z,52.10
2019-04-03T03:56:34.063Z,51.80
2019-04-03T03:59:03.256Z,51.70
2019-04-03T04:01:34.374Z,51.90
2019-04-03T04:04:02.233Z,51.80
2019-04-03T04:06:34.953Z,51.80
2019-04-03T04:09:01.953Z,52.40
2019-04-03T04:11:36.483Z,52.00
2019-04-03T04:14:06.154Z,51.70
2019-04-03T04:16:37.016Z,52.00
2019-04-03T04:19:11.493Z,51.90
2019-04-03T04:21:42.486Z,51.60
2019-04-03T04:24:09.109Z,51.50
2019-04-03T04:26:37.378Z,51.50
2019-04-03T04:29:05.597Z,51.60
2019-04-03T04:31:33.939Z,51.60
2019-04-03T04:34:02.397Z,51.90
2019-04-03T04:36:30.748Z,52.60
2019-04-03T04:38:59.229Z,52.20
2019-04-03T04:41:27.602Z,52.20
2019-04-03T04:43:55.982Z,52.30
2019-04-03T04:46:24.388Z,51.10
2019-04-03T04:48:52.968Z,51.30
2019-04-03T04:51:21.680Z,51.10
2019-04-03T04:53:50.172Z,51.00
2019-04-03T04:56:18.515Z,50.40
2019-04-03T04:58:49.569Z,49.90
2019-04-03T05:01:18.244Z,48.80
2019-04-03T05:03:46.861Z,48.50
2019-04-03T05:06:15.230Z,48.60
2019-04-03T05:08:43.622Z,47.80
2019-04-03T05:11:11.971Z,47.90
2019-04-03T05:13:40.681Z,48.20
2019-04-03T05:16:09.308Z,48.20
2019-04-03T05:18:41.449Z,48.00
2019-04-03T05:21:09.947Z,47.70
2019-04-03T05:23:38.562Z,47.70
2019-04-03T05:26:06.921Z,45.50
2019-04-03T05:28:35.400Z,46.20
2019-04-03T05:31:03.716Z,46.70
2019-04-03T05:33:32.182Z,46.30
2019-04-03T05:36:00.584Z,48.50
2019-04-03T05:38:28.976Z,48.00
2019-04-03T05:41:00.536Z,47.90
2019-04-03T05:43:31.081Z,46.60
2019-04-03T05:45:58.335Z,46.00
2019-04-03T05:48:26.781Z,45.70
2019-04-03T05:50:56.141Z,45.60
2019-04-03T05:53:25.117Z,45.20
2019-04-03T05:55:53.473Z,44.80
2019-04-03T05:58:22.220Z,42.30
2019-04-03T06:01:02.610Z,42.10
2019-04-03T06:03:20.139Z,43.10
2019-04-03T06:05:48.659Z,40.40
2019-04-03T06:08:19.333Z,40.60
2019-04-03T06:10:47.454Z,39.70
2019-04-03T06:13:17.023Z,40.70
2019-04-03T06:15:45.266Z,39.60
2019-04-03T06:18:13.667Z,39.30
2019-04-03T06:20:43.657Z,40.90
2019-04-03T06:23:12.299Z,41.20
2019-04-03T06:25:41.701Z,41.90
2019-04-03T06:28:12.601Z,41.40
2019-04-03T06:30:42.680Z,41.70
2019-04-03T06:33:11.039Z,42.10
2019-04-03T06:35:39.580Z,43.40
2019-04-03T06:38:08.016Z,43.30
2019-04-03T06:40:36.410Z,45.40
2019-04-03T06:43:04.749Z,45.70
2019-04-03T06:45:33.170Z,44.10
2019-04-03T06:48:04.270Z,44.40
2019-04-03T06:50:31.537Z,44.50
2019-04-03T06:52:59.871Z,44.90
2019-04-03T06:55:28.146Z,43.40
2019-04-03T06:57:56.449Z,43.10
2019-04-03T07:00:24.784Z,41.90
2019-04-03T07:02:53.569Z,41.00
2019-04-03T07:05:22.094Z,40.00
2019-04-03T07:07:50.800Z,38.90
2019-04-03T07:10:25.477Z,38.40
2019-04-03T07:12:49.508Z,38.20
2019-04-03T07:15:17.922Z,38.40
2019-04-03T07:17:46.218Z,37.20
2019-04-03T07:20:18.777Z,37.20
2019-04-03T07:22:44.089Z,37.10
2019-04-03T07:25:12.582Z,36.00
2019-04-03T07:27:42.278Z,37.40
2019-04-03T07:30:11.464Z,37.80
2019-04-03T07:32:40.099Z,36.90
2019-04-03T07:35:10.136Z,36.40
2019-04-03T07:37:37.901Z,37.00
2019-04-03T07:40:06.873Z,36.70
2019-04-03T07:42:35.971Z,35.60
2019-04-03T07:45:06.309Z,36.50
2019-04-03T07:47:35.778Z,34.80
2019-04-03T07:50:08.682Z,34.20
2019-04-03T07:52:37.204Z,35.70
2019-04-03T07:55:05.635Z,34.30
2019-04-03T07:57:34.423Z,35.80
2019-04-03T08:00:07.133Z,34.20
2019-04-03T08:02:35.873Z,34.10
2019-04-03T08:05:06.202Z,33.20
2019-04-03T08:07:34.725Z,32.90
2019-04-03T08:10:04.509Z,33.00
2019-04-03T08:12:35.464Z,32.30
2019-04-03T08:15:04.332Z,30.10
2019-04-03T08:17:32.895Z,30.50
2019-04-03T08:20:02.710Z,28.30
2019-04-03T08:22:33.229Z,26.00
2019-04-03T08:25:01.304Z,23.60
2019-04-03T08:27:29.992Z,22.10
2019-04-03T08:29:58.985Z,22.00
2019-04-03T08:32:27.642Z,22.00
2019-04-03T08:35:02.338Z,21.30
2019-04-03T08:37:32.270Z,19.70
2019-04-03T08:40:00.769Z,22.00
2019-04-03T08:42:32.258Z,23.00
2019-04-03T08:44:59.929Z,23.00
2019-04-03T08:47:28.649Z,22.70
2019-04-03T08:50:01.976Z,22.10
2019-04-03T08:52:29.547Z,21.60
2019-04-03T08:54:58.134Z,20.50
2019-04-03T08:57:27.235Z,21.00
2019-04-03T08:59:55.919Z,19.00
2019-04-03T09:02:43.505Z,19.80
2019-04-03T09:05:14.114Z,19.20
2019-04-03T09:07:42.793Z,19.60
2019-04-03T09:10:13.045Z,18.50
2019-04-03T09:12:42.039Z,19.20
2019-04-03T09:15:10.813Z,17.20
2019-04-03T09:17:39.634Z,19.20
2019-04-03T09:20:12.551Z,20.10
2019-04-03T09:22:39.820Z,22.00
2019-04-03T09:25:08.218Z,21.90
2019-04-03T09:27:37.984Z,22.10
2019-04-03T09:30:09.930Z,21.40
2019-04-03T09:32:38.632Z,21.20
2019-04-03T09:35:08.164Z,21.60
2019-04-03T09:37:38.123Z,21.30
2019-04-03T09:40:07.403Z,19.50
2019-04-03T09:42:36.606Z,19.30
2019-04-03T09:45:06.230Z,18.70
2019-04-03T09:47:34.992Z,17.90
2019-04-03T09:50:06.447Z,20.10
2019-04-03T09:52:41.429Z,18.90
2019-04-03T09:55:05.130Z,19.80
2019-04-03T09:57:33.590Z,18.80
2019-04-03T10:00:02.080Z,19.70
2019-04-03T10:02:33.853Z,18.90
2019-04-03T10:05:02.199Z,20.00
2019-04-03T10:07:31.942Z,19.30
2019-04-03T10:10:00.890Z,19.80
2019-04-03T10:12:31.758Z,20.90
2019-04-03T10:15:00.134Z,19.60
2019-04-03T10:17:28.971Z,20.00
2019-04-03T10:19:57.520Z,21.70
2019-04-03T10:22:26.328Z,20.50
2019-04-03T10:24:55.271Z,21.50
2019-04-03T10:27:23.820Z,19.50
2019-04-03T10:29:55.024Z,19.90
2019-04-03T10:32:22.496Z,21.20
2019-04-03T10:34:51.153Z,19.60
2019-04-03T10:37:20.160Z,20.10
2019-04-03T10:39:48.575Z,20.00
2019-04-03T10:45:20.682Z,19.70
2019-04-03T10:47:49.385Z,20.20
2019-04-03T10:50:17.953Z,19.60
2019-04-03T10:52:49.072Z,20.50
2019-04-03T10:55:16.622Z,20.60
2019-04-03T10:57:45.057Z,22.00
2019-04-03T11:00:13.615Z,21.10
2019-04-03T11:02:42.107Z,21.30
2019-04-03T11:05:10.827Z,23.60
2019-04-03T11:07:39.178Z,21.80
2019-04-03T11:10:08.066Z,25.70
2019-04-03T11:12:36.554Z,24.00
2019-04-03T11:15:10.458Z,22.70
2019-04-03T11:17:37.681Z,24.10
2019-04-03T11:20:09.706Z,24.90
2019-04-03T11:22:42.720Z,25.10
2019-04-03T11:25:07.977Z,26.30
2019-04-03T11:27:45.009Z,25.80
2019-04-03T11:30:14.055Z,26.90
2019-04-03T11:32:42.169Z,27.00
2019-04-03T11:35:11.087Z,26.20
2019-04-03T11:37:39.395Z,27.80
2019-04-03T11:40:08.731Z,26.80
2019-04-03T11:42:37.000Z,26.90
2019-04-03T11:45:06.971Z,26.20
2019-04-03T11:47:35.324Z,26.10
2019-04-03T11:50:04.643Z,26.30
2019-04-03T11:52:33.107Z,26.90
2019-04-03T11:55:01.567Z,28.50
2019-04-03T11:57:29.829Z,27.60
2019-04-03T11:59:58.590Z,27.00
2019-04-03T12:02:27.219Z,27.70
2019-04-03T12:04:55.497Z,28.50
2019-04-03T12:07:25.138Z,27.70
2019-04-03T12:09:54.107Z,28.10
2019-04-03T12:12:22.647Z,27.90
2019-04-03T12:14:51.353Z,28.40
2019-04-03T12:17:20.011Z,27.70
2019-04-03T12:19:48.781Z,28.70
2019-04-03T12:22:17.441Z,27.50
2019-04-03T12:24:46.040Z,26.80
2019-04-03T12:27:14.831Z,28.40
2019-04-03T12:29:43.317Z,28.30
2019-04-03T12:32:11.685Z,26.80
2019-04-03T12:34:39.974Z,27.20
2019-04-03T12:37:08.475Z,26.90
2019-04-03T12:39:36.719Z,26.10
2019-04-03T12:42:05.114Z,27.00
2019-04-03T12:44:33.550Z,27.20
2019-04-03T12:47:04.657Z,26.90
2019-04-03T12:49:31.266Z,28.20
2019-04-03T12:52:03.037Z,27.50
2019-04-03T12:54:30.230Z,28.70
2019-04-03T12:57:00.271Z,28.40
2019-04-03T12:59:28.221Z,28.50
2019-04-03T13:01:56.672Z,29.60
2019-04-03T13:04:26.412Z,27.50
2019-04-03T13:06:55.590Z,28.40
2019-04-03T13:09:24.007Z,27.80
2019-04-03T13:11:52.621Z,28.40
2019-04-03T13:14:25.279Z,28.30
2019-04-03T13:16:50.461Z,26.80
2019-04-03T13:19:18.984Z,28.40
2019-04-03T13:21:47.376Z,28.50
2019-04-03T13:24:16.714Z,28.70
2019-04-03T13:26:45.020Z,27.90
2019-04-03T13:29:13.351Z,28.50
2019-04-03T13:31:41.810Z,29.30
2019-04-03T13:34:11.360Z,28.00
2019-04-03T13:36:39.917Z,28.10
2019-04-03T13:39:08.714Z,29.50
2019-04-03T13:41:37.769Z,28.40
2019-04-03T13:44:06.877Z,28.30
2019-04-03T13:46:36.530Z,29.70
2019-04-03T13:49:05.141Z,28.10
2019-04-03T13:51:33.558Z,28.50
2019-04-03T13:54:01.856Z,28.70
2019-04-03T13:56:30.506Z,29.70
2019-04-03T13:58:59.011Z,29.50
2019-04-03T14:01:28.410Z,29.00
2019-04-03T14:03:57.151Z,30.80
2019-04-03T14:06:25.548Z,30.60
2019-04-03T14:08:54.161Z,30.00
2019-04-03T14:11:22.503Z,32.30
2019-04-03T14:13:50.806Z,29.80
2019-04-03T14:16:22.392Z,30.10
2019-04-03T14:18:51.322Z,31.60
2019-04-03T14:21:19.833Z,33.60
2019-04-03T14:23:48.918Z,33.20
2019-04-03T14:26:17.278Z,30.20
2019-04-03T14:28:45.741Z,32.20
2019-04-03T14:31:16.681Z,30.90
2019-04-03T14:33:46.785Z,31.60
2019-04-03T14:36:18.390Z,31.70
2019-04-03T14:38:44.369Z,30.90
2019-04-03T14:41:12.878Z,31.80
2019-04-03T14:43:47.749Z,32.40
2019-04-03T14:46:17.970Z,34.10
2019-04-03T14:48:45.851Z,33.20
2019-04-03T14:51:14.256Z,33.80
2019-04-03T14:53:43.640Z,33.90
2019-04-03T14:56:12.041Z,33.50
2019-04-03T14:58:41.558Z,32.50
2019-04-03T15:01:10.718Z,34.20
2019-04-03T15:03:40.327Z,33.90
2019-04-03T15:06:09.109Z,33.70
2019-04-03T15:08:37.452Z,34.50
2019-04-03T15:11:05.766Z,35.70
2019-04-03T15:13:34.328Z,35.50
2019-04-03T15:16:03.214Z,35.10
2019-04-03T15:18:31.665Z,33.70
2019-04-03T15:20:59.999Z,34.10
2019-04-03T15:23:28.754Z,33.20
2019-04-03T15:25:57.258Z,34.60
2019-04-03T15:28:25.602Z,35.50
2019-04-03T15:30:53.902Z,36.60
2019-04-03T15:33:24.272Z,35.40
2019-04-03T15:35:51.977Z,36.20
2019-04-03T15:38:20.350Z,35.80
2019-04-03T15:40:48.887Z,36.50
2019-04-03T15:43:25.844Z,35.80
2019-04-03T15:45:56.563Z,34.90
2019-04-03T15:48:23.666Z,36.60
2019-04-03T15:50:52.298Z,37.90
2019-04-03T15:53:23.685Z,36.60
2019-04-03T15:55:50.115Z,36.60
2019-04-03T15:58:18.636Z,36.60
2019-04-03T16:00:47.246Z,37.40
2019-04-03T16:03:17.571Z,37.50
2019-04-03T16:05:45.842Z,36.60
2019-04-03T16:08:14.148Z,37.60
2019-04-03T16:10:42.760Z,36.60
2019-04-03T16:13:12.054Z,38.20
2019-04-03T16:15:41.219Z,38.90
2019-04-03T16:18:15.801Z,38.20
2019-04-03T16:20:44.720Z,38.70
2019-04-03T16:23:13.776Z,38.70
2019-04-03T16:25:42.475Z,40.10
2019-04-03T16:28:13.015Z,39.80
2019-04-03T16:30:40.332Z,40.90
2019-04-03T16:33:19.047Z,42.80
2019-04-03T16:35:38.937Z,40.90
2019-04-03T16:38:07.375Z,41.00
2019-04-03T16:40:37.776Z,41.00
2019-04-03T16:43:06.506Z,41.40
2019-04-03T16:45:38.085Z,42.50
2019-04-03T16:48:05.423Z,41.00
2019-04-03T16:50:33.778Z,41.70
2019-04-03T16:53:02.072Z,43.70
2019-04-03T16:55:30.788Z,44.10
2019-04-03T16:57:59.635Z,44.70
2019-04-03T17:00:32.489Z,45.00
2019-04-03T17:03:00.827Z,44.70
2019-04-03T17:05:29.221Z,45.30
2019-04-03T17:07:57.747Z,45.50
2019-04-03T17:10:26.405Z,45.50
2019-04-03T17:12:55.001Z,45.00
2019-04-03T17:15:23.640Z,45.00
2019-04-03T17:17:52.198Z,44.20
2019-04-03T17:20:22.515Z,45.20
2019-04-03T17:22:50.221Z,44.80
2019-04-03T17:25:18.782Z,44.80
2019-04-03T17:27:55.157Z,45.80
2019-04-03T17:30:18.264Z,45.60
2019-04-03T17:32:49.393Z,45.30
2019-04-03T17:35:17.850Z,46.00
2019-04-03T17:37:46.143Z,45.00
2019-04-03T17:40:15.015Z,45.80
2019-04-03T17:42:44.688Z,46.00
2019-04-03T17:45:15.461Z,46.80
2019-04-03T17:47:42.986Z,46.60
2019-04-03T17:50:11.310Z,46.30
2019-04-03T17:52:39.675Z,46.40
2019-04-03T17:55:09.955Z,48.20
2019-04-03T17:57:39.283Z,49.00
2019-04-03T18:00:15.743Z,46.50
2019-04-03T18:02:44.071Z,47.80
2019-04-03T18:05:12.722Z,48.20
2019-04-03T18:07:41.271Z,48.50
2019-04-03T18:10:12.627Z,48.70
2019-04-03T18:12:41.764Z,48.70
2019-04-03T18:15:10.488Z,47.40
2019-04-03T18:17:38.922Z,46.90
2019-04-03T18:20:07.432Z,46.60
2019-04-03T18:22:35.770Z,45.60
2019-04-03T18:25:08.133Z,45.30
2019-04-03T18:27:35.971Z,46.40
2019-04-03T18:30:06.081Z,46.10
2019-04-03T18:32:35.429Z,47.10
2019-04-03T18:35:07.117Z,45.80
2019-04-03T18:37:40.322Z,45.80
2019-04-03T18:40:08.608Z,45.80
2019-04-03T18:42:37.111Z,46.60
2019-04-03T18:45:06.075Z,46.50
2019-04-03T18:47:41.036Z,45.80
2019-04-03T18:50:12.634Z,46.20
2019-04-03T18:52:45.425Z,46.30
2019-04-03T18:55:15.774Z,47.10
2019-04-03T18:57:54.793Z,47.10
2019-04-03T19:00:25.624Z,46.60
2019-04-03T19:03:07.780Z,47.70
2019-04-03T19:05:37.770Z,47.00
2019-04-03T19:08:13.462Z,46.10
2019-04-03T19:10:40.139Z,46.40
2019-04-03T19:13:13.665Z,46.70
2019-04-03T19:15:46.654Z,47.50
2019-04-03T19:18:19.616Z,47.00
2019-04-03T19:20:45.670Z,47.80
2019-04-03T19:23:14.857Z,47.40
2019-04-03T19:25:46.684Z,47.20
2019-04-03T19:28:14.989Z,47.40
2019-04-03T19:30:43.289Z,47.00
2019-04-03T19:33:12.069Z,47.70
2019-04-03T19:35:40.990Z,47.00
2019-04-03T19:38:09.347Z,47.00
2019-04-03T19:40:40.328Z,47.00
2019-04-03T19:43:07.896Z,47.10
2019-04-03T19:45:36.288Z,47.50
2019-04-03T19:48:05.115Z,48.10
2019-04-03T19:50:33.491Z,47.70
2019-04-03T19:53:01.867Z,47.50
2019-04-03T19:55:30.352Z,47.00
2019-04-03T19:57:58.831Z,46.70
2019-04-03T20:00:27.632Z,46.70
2019-04-03T20:02:55.962Z,47.30
2019-04-03T20:05:24.271Z,47.30
2019-04-03T20:07:52.716Z,46.70
2019-04-03T20:10:21.286Z,46.30
2019-04-03T20:12:49.866Z,48.60
2019-04-03T20:15:18.249Z,48.00
2019-04-03T20:17:46.656Z,48.20
2019-04-03T20:20:15.989Z,50.20
2019-04-03T20:22:44.758Z,48.90
2019-04-03T20:25:15.937Z,50.80
2019-04-03T20:27:47.219Z,51.40
2019-04-03T20:30:16.898Z,51.40
2019-04-03T20:32:48.590Z,51.40
2019-04-03T20:35:18.722Z,50.60
2019-04-03T20:37:46.608Z,52.00
2019-04-03T20:40:15.204Z,52.40
2019-04-03T20:42:43.477Z,52.10
2019-04-03T20:45:11.786Z,53.50
2019-04-03T20:47:40.129Z,52.20
2019-04-03T20:50:08.585Z,51.60
2019-04-03T20:52:45.789Z,53.70
2019-04-03T20:55:10.158Z,53.70
2019-04-03T20:57:38.596Z,52.50
2019-04-03T21:00:12.503Z,50.70
2019-04-03T21:02:42.076Z,51.90
2019-04-03T21:05:11.497Z,50.50
2019-04-03T21:07:39.814Z,50.60
2019-04-03T21:10:08.433Z,50.30
2019-04-03T21:12:36.999Z,50.80
2019-04-03T21:15:08.866Z,50.00
2019-04-03T21:17:36.102Z,50.80
2019-04-03T21:20:05.578Z,50.20
2019-04-03T21:22:34.429Z,51.00
2019-04-03T21:25:05.489Z,50.50
2019-04-03T21:27:34.312Z,49.60
2019-04-03T21:30:02.820Z,49.80
2019-04-03T21:32:31.383Z,50.10
2019-04-03T21:35:03.099Z,50.70
2019-04-03T21:37:30.192Z,49.60
2019-04-03T21:40:02.072Z,49.70
2019-04-03T21:42:28.871Z,48.20
2019-04-03T21:44:57.232Z,48.10
2019-04-03T21:47:25.800Z,48.60
2019-04-03T21:49:54.227Z,46.70
2019-04-03T21:52:22.860Z,46.60
2019-04-03T21:54:52.178Z,46.30
2019-04-03T21:57:20.547Z,47.20
2019-04-03T21:59:48.998Z,47.90
2019-04-03T22:02:17.383Z,48.20
2019-04-03T22:04:46.027Z,48.30
2019-04-03T22:07:14.344Z,48.00
2019-04-03T22:09:42.696Z,48.60
2019-04-03T22:12:12.289Z,48.70
2019-04-03T22:14:41.005Z,49.30
2019-04-03T22:17:10.189Z,50.70
2019-04-03T22:19:38.571Z,49.10
2019-04-03T22:22:07.109Z,51.00
2019-04-03T22:24:37.417Z,51.00
2019-04-03T22:27:06.045Z,48.90
2019-04-03T22:29:34.369Z,49.40
2019-04-03T22:32:02.751Z,49.70
2019-04-03T22:34:31.104Z,50.60
2019-04-03T22:36:59.433Z,51.50
2019-04-03T22:39:27.787Z,47.40
2019-04-03T22:41:56.060Z,47.30
2019-04-03T22:44:24.331Z,45.90
2019-04-03T22:46:54.166Z,44.40
2019-04-03T22:49:22.053Z,45.90
2019-04-03T22:51:50.827Z,44.30
2019-04-03T22:54:19.189Z,43.70
2019-04-03T22:56:48.292Z,44.30
2019-04-03T22:59:16.796Z,42.70
2019-04-03T23:01:45.058Z,42.40
2019-04-03T23:04:13.312Z,42.70
2019-04-03T23:06:41.662Z,42.00
2019-04-03T23:09:10.760Z,43.50
2019-04-03T23:11:39.082Z,45.50
2019-04-03T23:14:07.853Z,45.80
2019-04-03T23:16:36.148Z,46.70
2019-04-03T23:19:04.685Z,47.90
2019-04-03T23:21:33.223Z,47.20
2019-04-03T23:24:01.501Z,45.50
2019-04-03T23:26:32.078Z,46.00
2019-04-03T23:29:00.143Z,46.20
2019-04-03T23:31:28.611Z,45.20
2019-04-03T23:33:56.910Z,44.10
2019-04-03T23:36:25.190Z,43.30
2019-04-03T23:38:56.403Z,42.90
2019-04-03T23:41:23.548Z,42.40
2019-04-03T23:43:53.282Z,42.60
2019-04-03T23:46:21.933Z,43.10
2019-04-03T23:48:50.318Z,43.10
2019-04-03T23:51:23.257Z,45.60
2019-04-03T23:53:49.200Z,44.90
2019-04-03T23:56:17.464Z,44.30
2019-04-03T23:58:45.747Z,44.90
